sensor_id;sensor_type;location;lat;lon;timestamp;P1;durP1;ratioP1;P2;durP2;ratioP2
74749;SDS011;63269;53.330;-6.288;2023-09-08T00:01:49;14.57;;;12.65;;
74749;SDS011;63269;53.330;-6.288;2023-09-08T00:04:15;15.65;;;12.43;;
74749;SDS011;63269;53.330;-6.288;2023-09-08T00:06:41;16.75;;;12.90;;
74749;SDS011;63269;53.330;-6.288;2023-09-08T00:09:06;16.35;;;12.88;;
74749;SDS011;63269;53.330;-6.288;2023-09-08T00:11:32;15.18;;;13.10;;
74749;SDS011;63269;53.330;-6.288;2023-09-08T00:13:59;16.33;;;13.40;;
74749;SDS011;63269;53.330;-6.288;2023-09-08T00:16:24;14.82;;;12.82;;
74749;SDS011;63269;53.330;-6.288;2023-09-08T00:18:50;14.27;;;12.57;;
74749;SDS011;63269;53.330;-6.288;2023-09-08T00:21:16;16.23;;;13.65;;
74749;SDS011;63269;53.330;-6.288;2023-09-08T00:23:41;16.50;;;13.55;;
74749;SDS011;63269;53.330;-6.288;2023-09-08T00:26:07;17.10;;;13.20;;
74749;SDS011;63269;53.330;-6.288;2023-09-08T00:28:33;15.65;;;14.02;;
74749;SDS011;63269;53.330;-6.288;2023-09-08T00:30:58;14.30;;;12.80;;
74749;SDS011;63269;53.330;-6.288;2023-09-08T00:33:27;14.50;;;12.02;;
74749;SDS011;63269;53.330;-6.288;2023-09-08T00:35:52;16.23;;;13.48;;
74749;SDS011;63269;53.330;-6.288;2023-09-08T00:38:19;19.55;;;13.23;;
74749;SDS011;63269;53.330;-6.288;2023-09-08T00:40:44;16.13;;;13.35;;
74749;SDS011;63269;53.330;-6.288;2023-09-08T00:43:10;14.52;;;12.93;;
74749;SDS011;63269;53.330;-6.288;2023-09-08T00:45:38;15.77;;;12.80;;
74749;SDS011;63269;53.330;-6.288;2023-09-08T00:48:06;18.50;;;13.60;;
74749;SDS011;63269;53.330;-6.288;2023-09-08T00:50:33;17.02;;;13.07;;
74749;SDS011;63269;53.330;-6.288;2023-09-08T00:53:01;18.25;;;13.77;;
74749;SDS011;63269;53.330;-6.288;2023-09-08T00:55:26;15.48;;;13.10;;
74749;SDS011;63269;53.330;-6.288;2023-09-08T00:57:52;16.17;;;13.93;;
74749;SDS011;63269;53.330;-6.288;2023-09-08T01:00:18;19.90;;;14.80;;
74749;SDS011;63269;53.330;-6.288;2023-09-08T01:02:44;19.15;;;14.73;;
74749;SDS011;63269;53.330;-6.288;2023-09-08T01:05:10;16.00;;;13.82;;
74749;SDS011;63269;53.330;-6.288;2023-09-08T01:07:38;19.45;;;14.65;;
74749;SDS011;63269;53.330;-6.288;2023-09-08T01:10:04;19.40;;;14.30;;
74749;SDS011;63269;53.330;-6.288;2023-09-08T01:12:31;17.88;;;14.00;;
74749;SDS011;63269;53.330;-6.288;2023-09-08T01:14:58;19.05;;;14.32;;
74749;SDS011;63269;53.330;-6.288;2023-09-08T01:17:24;17.65;;;14.65;;
74749;SDS011;63269;53.330;-6.288;2023-09-08T01:19:50;17.45;;;14.02;;
74749;SDS011;63269;53.330;-6.288;2023-09-08T01:25:50;15.93;;;13.70;;
74749;SDS011;63269;53.330;-6.288;2023-09-08T01:28:24;15.68;;;14.02;;
74749;SDS011;63269;53.330;-6.288;2023-09-08T01:30:52;15.77;;;13.30;;
74749;SDS011;63269;53.330;-6.288;2023-09-08T01:33:19;18.42;;;14.32;;
74749;SDS011;63269;53.330;-6.288;2023-09-08T01:35:45;14.50;;;13.00;;
74749;SDS011;63269;53.330;-6.288;2023-09-08T01:38:11;16.38;;;14.55;;
74749;SDS011;63269;53.330;-6.288;2023-09-08T01:40:37;17.10;;;14.23;;
74749;SDS011;63269;53.330;-6.288;2023-09-08T01:43:03;15.70;;;14.00;;
74749;SDS011;63269;53.330;-6.288;2023-09-08T01:45:29;16.45;;;13.63;;
74749;SDS011;63269;53.330;-6.288;2023-09-08T01:47:54;16.38;;;13.27;;
74749;SDS011;63269;53.330;-6.288;2023-09-08T01:50:20;17.48;;;14.68;;
74749;SDS011;63269;53.330;-6.288;2023-09-08T01:52:47;18.00;;;13.88;;
74749;SDS011;63269;53.330;-6.288;2023-09-08T01:55:13;16.33;;;13.50;;
74749;SDS011;63269;53.330;-6.288;2023-09-08T01:57:41;18.45;;;15.15;;
74749;SDS011;63269;53.330;-6.288;2023-09-08T02:00:07;16.58;;;14.48;;
74749;SDS011;63269;53.330;-6.288;2023-09-08T02:02:34;16.08;;;14.38;;
74749;SDS011;63269;53.330;-6.288;2023-09-08T02:05:00;17.65;;;13.93;;
74749;SDS011;63269;53.330;-6.288;2023-09-08T02:07:25;16.92;;;13.65;;
74749;SDS011;63269;53.330;-6.288;2023-09-08T02:09:51;17.15;;;14.27;;
74749;SDS011;63269;53.330;-6.288;2023-09-08T02:12:17;16.10;;;13.90;;
74749;SDS011;63269;53.330;-6.288;2023-09-08T02:14:42;17.02;;;14.45;;
74749;SDS011;63269;53.330;-6.288;2023-09-08T02:17:08;15.65;;;13.85;;
74749;SDS011;63269;53.330;-6.288;2023-09-08T02:19:34;16.10;;;14.23;;
74749;SDS011;63269;53.330;-6.288;2023-09-08T02:22:00;16.60;;;14.82;;
74749;SDS011;63269;53.330;-6.288;2023-09-08T02:24:26;15.77;;;13.60;;
74749;SDS011;63269;53.330;-6.288;2023-09-08T02:26:52;20.23;;;14.95;;
74749;SDS011;63269;53.330;-6.288;2023-09-08T02:29:18;16.52;;;13.70;;
74749;SDS011;63269;53.330;-6.288;2023-09-08T02:31:44;15.90;;;14.05;;
74749;SDS011;63269;53.330;-6.288;2023-09-08T02:34:09;16.25;;;13.82;;
74749;SDS011;63269;53.330;-6.288;2023-09-08T02:36:36;16.23;;;13.90;;
74749;SDS011;63269;53.330;-6.288;2023-09-08T02:39:02;17.30;;;14.43;;
74749;SDS011;63269;53.330;-6.288;2023-09-08T02:41:28;16.23;;;14.45;;
74749;SDS011;63269;53.330;-6.288;2023-09-08T02:43:53;19.08;;;14.82;;
74749;SDS011;63269;53.330;-6.288;2023-09-08T02:46:19;16.25;;;14.40;;
74749;SDS011;63269;53.330;-6.288;2023-09-08T02:48:45;15.63;;;14.02;;
74749;SDS011;63269;53.330;-6.288;2023-09-08T02:51:11;17.73;;;14.75;;
74749;SDS011;63269;53.330;-6.288;2023-09-08T02:53:37;17.25;;;14.50;;
74749;SDS011;63269;53.330;-6.288;2023-09-08T02:56:03;17.30;;;13.93;;
74749;SDS011;63269;53.330;-6.288;2023-09-08T02:58:30;18.33;;;14.70;;
74749;SDS011;63269;53.330;-6.288;2023-09-08T03:01:12;16.83;;;13.87;;
74749;SDS011;63269;53.330;-6.288;2023-09-08T03:03:45;16.77;;;13.88;;
74749;SDS011;63269;53.330;-6.288;2023-09-08T03:06:13;16.05;;;14.35;;
74749;SDS011;63269;53.330;-6.288;2023-09-08T03:08:40;16.08;;;13.52;;
74749;SDS011;63269;53.330;-6.288;2023-09-08T03:11:05;15.90;;;14.25;;
74749;SDS011;63269;53.330;-6.288;2023-09-08T03:13:32;17.55;;;14.20;;
74749;SDS011;63269;53.330;-6.288;2023-09-08T03:16:02;18.27;;;14.52;;
74749;SDS011;63269;53.330;-6.288;2023-09-08T03:18:35;16.60;;;14.48;;
74749;SDS011;63269;53.330;-6.288;2023-09-08T03:21:05;16.88;;;14.82;;
74749;SDS011;63269;53.330;-6.288;2023-09-08T03:23:38;18.10;;;14.75;;
74749;SDS011;63269;53.330;-6.288;2023-09-08T03:26:03;18.33;;;13.63;;
74749;SDS011;63269;53.330;-6.288;2023-09-08T03:28:30;16.00;;;13.90;;
74749;SDS011;63269;53.330;-6.288;2023-09-08T03:30:56;18.40;;;14.43;;
74749;SDS011;63269;53.330;-6.288;2023-09-08T03:33:21;16.00;;;13.93;;
74749;SDS011;63269;53.330;-6.288;2023-09-08T03:35:47;16.02;;;14.32;;
74749;SDS011;63269;53.330;-6.288;2023-09-08T03:38:13;17.05;;;14.07;;
74749;SDS011;63269;53.330;-6.288;2023-09-08T03:40:39;20.00;;;14.93;;
74749;SDS011;63269;53.330;-6.288;2023-09-08T03:43:05;15.27;;;13.65;;
74749;SDS011;63269;53.330;-6.288;2023-09-08T03:45:30;15.50;;;13.90;;
74749;SDS011;63269;53.330;-6.288;2023-09-08T03:47:56;17.25;;;14.82;;
74749;SDS011;63269;53.330;-6.288;2023-09-08T03:50:22;15.82;;;13.50;;
74749;SDS011;63269;53.330;-6.288;2023-09-08T03:52:47;17.25;;;14.65;;
74749;SDS011;63269;53.330;-6.288;2023-09-08T03:55:13;16.75;;;14.65;;
74749;SDS011;63269;53.330;-6.288;2023-09-08T03:57:39;15.88;;;14.10;;
74749;SDS011;63269;53.330;-6.288;2023-09-08T04:00:04;19.75;;;15.73;;
74749;SDS011;63269;53.330;-6.288;2023-09-08T04:02:31;17.52;;;14.52;;
74749;SDS011;63269;53.330;-6.288;2023-09-08T04:04:58;16.08;;;14.07;;
74749;SDS011;63269;53.330;-6.288;2023-09-08T04:07:24;17.80;;;15.25;;
74749;SDS011;63269;53.330;-6.288;2023-09-08T04:09:49;16.73;;;14.20;;
74749;SDS011;63269;53.330;-6.288;2023-09-08T04:12:15;17.23;;;14.95;;
74749;SDS011;63269;53.330;-6.288;2023-09-08T04:14:41;16.80;;;13.65;;
74749;SDS011;63269;53.330;-6.288;2023-09-08T04:17:07;17.95;;;14.57;;
74749;SDS011;63269;53.330;-6.288;2023-09-08T04:19:33;16.15;;;13.95;;
74749;SDS011;63269;53.330;-6.288;2023-09-08T04:21:59;17.17;;;14.20;;
74749;SDS011;63269;53.330;-6.288;2023-09-08T04:24:24;15.23;;;13.15;;
74749;SDS011;63269;53.330;-6.288;2023-09-08T04:26:50;17.48;;;15.32;;
74749;SDS011;63269;53.330;-6.288;2023-09-08T04:29:16;16.33;;;13.88;;
74749;SDS011;63269;53.330;-6.288;2023-09-08T04:31:42;17.17;;;14.10;;
74749;SDS011;63269;53.330;-6.288;2023-09-08T04:34:07;17.27;;;14.75;;
74749;SDS011;63269;53.330;-6.288;2023-09-08T04:36:33;16.58;;;13.93;;
74749;SDS011;63269;53.330;-6.288;2023-09-08T04:38:58;18.45;;;14.38;;
74749;SDS011;63269;53.330;-6.288;2023-09-08T04:41:24;17.35;;;15.05;;
74749;SDS011;63269;53.330;-6.288;2023-09-08T04:43:50;18.23;;;14.73;;
74749;SDS011;63269;53.330;-6.288;2023-09-08T04:46:15;16.98;;;15.27;;
74749;SDS011;63269;53.330;-6.288;2023-09-08T04:48:41;17.98;;;14.10;;
74749;SDS011;63269;53.330;-6.288;2023-09-08T04:51:07;18.42;;;14.30;;
74749;SDS011;63269;53.330;-6.288;2023-09-08T04:53:33;16.52;;;14.63;;
74749;SDS011;63269;53.330;-6.288;2023-09-08T04:55:58;16.70;;;14.43;;
74749;SDS011;63269;53.330;-6.288;2023-09-08T04:58:24;17.73;;;14.73;;
74749;SDS011;63269;53.330;-6.288;2023-09-08T05:00:50;16.63;;;14.77;;
74749;SDS011;63269;53.330;-6.288;2023-09-08T05:03:16;18.23;;;14.43;;
74749;SDS011;63269;53.330;-6.288;2023-09-08T05:05:42;18.92;;;14.30;;
74749;SDS011;63269;53.330;-6.288;2023-09-08T05:08:07;18.20;;;14.75;;
74749;SDS011;63269;53.330;-6.288;2023-09-08T05:10:33;16.70;;;14.55;;
74749;SDS011;63269;53.330;-6.288;2023-09-08T05:12:58;16.73;;;14.60;;
74749;SDS011;63269;53.330;-6.288;2023-09-08T05:15:24;15.80;;;13.90;;
74749;SDS011;63269;53.330;-6.288;2023-09-08T05:17:51;16.63;;;14.32;;
74749;SDS011;63269;53.330;-6.288;2023-09-08T05:20:16;15.00;;;13.40;;
74749;SDS011;63269;53.330;-6.288;2023-09-08T05:22:42;16.48;;;13.48;;
74749;SDS011;63269;53.330;-6.288;2023-09-08T05:25:08;14.98;;;13.35;;
74749;SDS011;63269;53.330;-6.288;2023-09-08T05:27:34;16.60;;;13.68;;
74749;SDS011;63269;53.330;-6.288;2023-09-08T05:29:59;17.10;;;14.32;;
74749;SDS011;63269;53.330;-6.288;2023-09-08T05:32:25;15.45;;;12.80;;
74749;SDS011;63269;53.330;-6.288;2023-09-08T05:34:51;17.48;;;14.32;;
74749;SDS011;63269;53.330;-6.288;2023-09-08T05:37:16;15.15;;;13.52;;
74749;SDS011;63269;53.330;-6.288;2023-09-08T05:39:42;16.77;;;13.90;;
74749;SDS011;63269;53.330;-6.288;2023-09-08T05:42:08;17.90;;;14.43;;
74749;SDS011;63269;53.330;-6.288;2023-09-08T05:44:34;15.43;;;13.73;;
74749;SDS011;63269;53.330;-6.288;2023-09-08T05:47:00;15.48;;;13.18;;
74749;SDS011;63269;53.330;-6.288;2023-09-08T05:49:26;18.73;;;14.10;;
74749;SDS011;63269;53.330;-6.288;2023-09-08T05:51:51;16.52;;;13.95;;
74749;SDS011;63269;53.330;-6.288;2023-09-08T05:54:18;17.88;;;14.95;;
74749;SDS011;63269;53.330;-6.288;2023-09-08T05:56:43;15.88;;;14.18;;
74749;SDS011;63269;53.330;-6.288;2023-09-08T05:59:09;18.23;;;13.82;;
74749;SDS011;63269;53.330;-6.288;2023-09-08T06:01:35;16.08;;;13.57;;
74749;SDS011;63269;53.330;-6.288;2023-09-08T06:04:01;18.02;;;14.63;;
74749;SDS011;63269;53.330;-6.288;2023-09-08T06:06:27;20.63;;;14.45;;
74749;SDS011;63269;53.330;-6.288;2023-09-08T06:08:54;17.40;;;14.52;;
74749;SDS011;63269;53.330;-6.288;2023-09-08T06:11:19;16.10;;;14.30;;
74749;SDS011;63269;53.330;-6.288;2023-09-08T06:13:45;16.25;;;14.27;;
74749;SDS011;63269;53.330;-6.288;2023-09-08T06:16:11;16.92;;;15.10;;
74749;SDS011;63269;53.330;-6.288;2023-09-08T06:18:37;16.88;;;14.43;;
74749;SDS011;63269;53.330;-6.288;2023-09-08T06:21:08;17.67;;;13.95;;
74749;SDS011;63269;53.330;-6.288;2023-09-08T06:23:34;16.37;;;13.67;;
74749;SDS011;63269;53.330;-6.288;2023-09-08T06:26:00;16.25;;;13.43;;
74749;SDS011;63269;53.330;-6.288;2023-09-08T06:28:27;15.10;;;13.45;;
74749;SDS011;63269;53.330;-6.288;2023-09-08T06:30:53;17.40;;;14.68;;
74749;SDS011;63269;53.330;-6.288;2023-09-08T06:33:19;17.98;;;13.88;;
74749;SDS011;63269;53.330;-6.288;2023-09-08T06:35:45;16.00;;;13.75;;
74749;SDS011;63269;53.330;-6.288;2023-09-08T06:38:12;19.02;;;14.10;;
74749;SDS011;63269;53.330;-6.288;2023-09-08T06:40:38;18.25;;;14.55;;
74749;SDS011;63269;53.330;-6.288;2023-09-08T06:43:04;20.00;;;14.35;;
74749;SDS011;63269;53.330;-6.288;2023-09-08T06:45:30;18.52;;;14.15;;
74749;SDS011;63269;53.330;-6.288;2023-09-08T06:47:56;18.75;;;15.25;;
74749;SDS011;63269;53.330;-6.288;2023-09-08T06:50:22;15.18;;;13.57;;
74749;SDS011;63269;53.330;-6.288;2023-09-08T06:52:51;15.85;;;13.55;;
74749;SDS011;63269;53.330;-6.288;2023-09-08T06:55:17;16.58;;;13.48;;
74749;SDS011;63269;53.330;-6.288;2023-09-08T06:57:43;15.55;;;13.88;;
74749;SDS011;63269;53.330;-6.288;2023-09-08T07:00:09;19.98;;;14.95;;
74749;SDS011;63269;53.330;-6.288;2023-09-08T07:02:38;15.77;;;13.43;;
74749;SDS011;63269;53.330;-6.288;2023-09-08T07:05:05;15.90;;;13.27;;
74749;SDS011;63269;53.330;-6.288;2023-09-08T07:07:34;18.17;;;14.10;;
74749;SDS011;63269;53.330;-6.288;2023-09-08T07:10:02;16.45;;;13.77;;
74749;SDS011;63269;53.330;-6.288;2023-09-08T07:12:29;18.92;;;14.43;;
74749;SDS011;63269;53.330;-6.288;2023-09-08T07:14:55;17.65;;;13.95;;
74749;SDS011;63269;53.330;-6.288;2023-09-08T07:17:21;17.08;;;13.38;;
74749;SDS011;63269;53.330;-6.288;2023-09-08T07:19:48;17.65;;;14.38;;
74749;SDS011;63269;53.330;-6.288;2023-09-08T07:22:16;15.07;;;13.48;;
74749;SDS011;63269;53.330;-6.288;2023-09-08T07:24:42;17.58;;;13.90;;
74749;SDS011;63269;53.330;-6.288;2023-09-08T07:27:09;15.55;;;13.70;;
74749;SDS011;63269;53.330;-6.288;2023-09-08T07:29:35;17.15;;;13.98;;
74749;SDS011;63269;53.330;-6.288;2023-09-08T07:32:00;16.05;;;13.27;;
74749;SDS011;63269;53.330;-6.288;2023-09-08T07:34:26;15.88;;;14.07;;
74749;SDS011;63269;53.330;-6.288;2023-09-08T07:36:52;16.27;;;13.85;;
74749;SDS011;63269;53.330;-6.288;2023-09-08T07:39:17;17.17;;;12.75;;
74749;SDS011;63269;53.330;-6.288;2023-09-08T07:41:43;15.57;;;13.10;;
74749;SDS011;63269;53.330;-6.288;2023-09-08T07:44:09;19.10;;;14.80;;
74749;SDS011;63269;53.330;-6.288;2023-09-08T07:46:35;16.38;;;13.35;;
74749;SDS011;63269;53.330;-6.288;2023-09-08T07:49:02;16.05;;;13.00;;
74749;SDS011;63269;53.330;-6.288;2023-09-08T07:51:28;19.25;;;13.27;;
74749;SDS011;63269;53.330;-6.288;2023-09-08T07:53:53;16.20;;;13.35;;
74749;SDS011;63269;53.330;-6.288;2023-09-08T07:56:21;15.38;;;13.63;;
74749;SDS011;63269;53.330;-6.288;2023-09-08T07:58:47;17.15;;;13.75;;
74749;SDS011;63269;53.330;-6.288;2023-09-08T08:01:14;17.40;;;13.85;;
74749;SDS011;63269;53.330;-6.288;2023-09-08T08:03:40;15.30;;;13.30;;
74749;SDS011;63269;53.330;-6.288;2023-09-08T08:06:06;17.13;;;14.13;;
74749;SDS011;63269;53.330;-6.288;2023-09-08T08:08:33;15.77;;;13.85;;
74749;SDS011;63269;53.330;-6.288;2023-09-08T08:11:08;16.52;;;13.13;;
74749;SDS011;63269;53.330;-6.288;2023-09-08T08:13:35;15.45;;;13.25;;
74749;SDS011;63269;53.330;-6.288;2023-09-08T08:16:01;18.02;;;13.43;;
74749;SDS011;63269;53.330;-6.288;2023-09-08T08:18:27;14.68;;;12.10;;
74749;SDS011;63269;53.330;-6.288;2023-09-08T08:20:52;15.15;;;11.90;;
74749;SDS011;63269;53.330;-6.288;2023-09-08T08:23:18;14.10;;;12.60;;
74749;SDS011;63269;53.330;-6.288;2023-09-08T08:25:44;16.85;;;11.73;;
74749;SDS011;63269;53.330;-6.288;2023-09-08T08:28:09;14.82;;;12.15;;
74749;SDS011;63269;53.330;-6.288;2023-09-08T08:30:35;15.73;;;12.45;;
74749;SDS011;63269;53.330;-6.288;2023-09-08T08:33:01;14.25;;;12.43;;
74749;SDS011;63269;53.330;-6.288;2023-09-08T08:35:27;13.82;;;11.98;;
74749;SDS011;63269;53.330;-6.288;2023-09-08T08:37:53;13.55;;;11.95;;
74749;SDS011;63269;53.330;-6.288;2023-09-08T08:40:19;15.73;;;12.50;;
74749;SDS011;63269;53.330;-6.288;2023-09-08T08:42:44;14.93;;;12.38;;
74749;SDS011;63269;53.330;-6.288;2023-09-08T08:45:10;19.45;;;13.98;;
74749;SDS011;63269;53.330;-6.288;2023-09-08T08:47:37;18.48;;;13.07;;
74749;SDS011;63269;53.330;-6.288;2023-09-08T08:50:03;14.73;;;11.82;;
74749;SDS011;63269;53.330;-6.288;2023-09-08T08:52:29;15.15;;;12.55;;
74749;SDS011;63269;53.330;-6.288;2023-09-08T08:54:55;16.02;;;11.90;;
74749;SDS011;63269;53.330;-6.288;2023-09-08T08:57:21;14.98;;;12.68;;
74749;SDS011;63269;53.330;-6.288;2023-09-08T08:59:48;13.93;;;12.00;;
74749;SDS011;63269;53.330;-6.288;2023-09-08T09:02:16;14.65;;;11.45;;
74749;SDS011;63269;53.330;-6.288;2023-09-08T09:04:43;68.32;;;57.33;;
74749;SDS011;63269;53.330;-6.288;2023-09-08T09:07:09;483.42;;;389.95;;
74749;SDS011;63269;53.330;-6.288;2023-09-08T09:09:35;572.03;;;432.35;;
74749;SDS011;63269;53.330;-6.288;2023-09-08T09:12:01;409.88;;;304.42;;
74749;SDS011;63269;53.330;-6.288;2023-09-08T09:14:28;401.90;;;291.38;;
74749;SDS011;63269;53.330;-6.288;2023-09-08T09:16:57;410.83;;;303.58;;
74749;SDS011;63269;53.330;-6.288;2023-09-08T09:19:23;383.75;;;290.85;;
74749;SDS011;63269;53.330;-6.288;2023-09-08T09:21:53;396.48;;;295.75;;
74749;SDS011;63269;53.330;-6.288;2023-09-08T09:26:55;383.15;;;288.77;;
74749;SDS011;63269;53.330;-6.288;2023-09-08T09:29:21;379.48;;;285.85;;
74749;SDS011;63269;53.330;-6.288;2023-09-08T09:31:50;366.25;;;281.52;;
74749;SDS011;63269;53.330;-6.288;2023-09-08T09:34:21;367.42;;;280.33;;
74749;SDS011;63269;53.330;-6.288;2023-09-08T09:36:50;372.30;;;279.42;;
74749;SDS011;63269;53.330;-6.288;2023-09-08T09:39:17;359.00;;;273.95;;
74749;SDS011;63269;53.330;-6.288;2023-09-08T09:41:45;361.75;;;274.80;;
74749;SDS011;63269;53.330;-6.288;2023-09-08T09:44:12;366.10;;;270.50;;
74749;SDS011;63269;53.330;-6.288;2023-09-08T09:46:38;354.20;;;263.23;;
74749;SDS011;63269;53.330;-6.288;2023-09-08T09:49:10;342.13;;;258.70;;
74749;SDS011;63269;53.330;-6.288;2023-09-08T09:51:42;332.33;;;253.68;;
74749;SDS011;63269;53.330;-6.288;2023-09-08T09:54:18;324.83;;;247.27;;
74749;SDS011;63269;53.330;-6.288;2023-09-08T09:56:44;324.75;;;247.07;;
74749;SDS011;63269;53.330;-6.288;2023-09-08T09:59:12;337.75;;;251.45;;
74749;SDS011;63269;53.330;-6.288;2023-09-08T10:01:42;321.83;;;243.45;;
74749;SDS011;63269;53.330;-6.288;2023-09-08T10:04:08;309.15;;;241.60;;
74749;SDS011;63269;53.330;-6.288;2023-09-08T10:06:36;304.35;;;234.82;;
74749;SDS011;63269;53.330;-6.288;2023-09-08T10:09:03;306.25;;;233.73;;
74749;SDS011;63269;53.330;-6.288;2023-09-08T10:11:34;298.55;;;229.65;;
74749;SDS011;63269;53.330;-6.288;2023-09-08T10:14:15;295.52;;;225.80;;
74749;SDS011;63269;53.330;-6.288;2023-09-08T10:16:44;293.65;;;223.45;;
74749;SDS011;63269;53.330;-6.288;2023-09-08T10:19:14;287.83;;;218.63;;
74749;SDS011;63269;53.330;-6.288;2023-09-08T10:21:42;286.60;;;220.35;;
74749;SDS011;63269;53.330;-6.288;2023-09-08T10:24:26;283.15;;;219.63;;
74749;SDS011;63269;53.330;-6.288;2023-09-08T10:27:07;292.55;;;219.20;;
74749;SDS011;63269;53.330;-6.288;2023-09-08T10:29:34;281.75;;;215.90;;
74749;SDS011;63269;53.330;-6.288;2023-09-08T10:32:00;278.00;;;208.23;;
74749;SDS011;63269;53.330;-6.288;2023-09-08T10:34:27;269.05;;;207.20;;
74749;SDS011;63269;53.330;-6.288;2023-09-08T10:36:55;271.27;;;208.00;;
74749;SDS011;63269;53.330;-6.288;2023-09-08T10:39:33;269.65;;;203.85;;
74749;SDS011;63269;53.330;-6.288;2023-09-08T10:47:20;256.10;;;194.13;;
74749;SDS011;63269;53.330;-6.288;2023-09-08T10:49:48;241.82;;;189.85;;
74749;SDS011;63269;53.330;-6.288;2023-09-08T10:52:20;247.82;;;189.65;;
74749;SDS011;63269;53.330;-6.288;2023-09-08T10:54:48;245.55;;;184.23;;
74749;SDS011;63269;53.330;-6.288;2023-09-08T10:57:16;241.75;;;187.05;;
74749;SDS011;63269;53.330;-6.288;2023-09-08T10:59:58;238.18;;;183.32;;
74749;SDS011;63269;53.330;-6.288;2023-09-08T11:02:42;230.88;;;176.88;;
74749;SDS011;63269;53.330;-6.288;2023-09-08T11:05:14;233.82;;;177.15;;
74749;SDS011;63269;53.330;-6.288;2023-09-08T11:07:41;228.15;;;174.25;;
74749;SDS011;63269;53.330;-6.288;2023-09-08T11:12:37;224.85;;;165.23;;
74749;SDS011;63269;53.330;-6.288;2023-09-08T11:15:04;228.38;;;174.80;;
74749;SDS011;63269;53.330;-6.288;2023-09-08T11:17:33;218.48;;;166.57;;
74749;SDS011;63269;53.330;-6.288;2023-09-08T11:20:01;216.63;;;163.63;;
74749;SDS011;63269;53.330;-6.288;2023-09-08T11:22:34;216.00;;;164.15;;
74749;SDS011;63269;53.330;-6.288;2023-09-08T11:25:01;212.75;;;164.68;;
74749;SDS011;63269;53.330;-6.288;2023-09-08T11:27:31;211.60;;;161.07;;
74749;SDS011;63269;53.330;-6.288;2023-09-08T11:29:57;212.68;;;160.82;;
74749;SDS011;63269;53.330;-6.288;2023-09-08T11:32:23;215.00;;;159.45;;
74749;SDS011;63269;53.330;-6.288;2023-09-08T11:34:49;209.82;;;159.73;;
74749;SDS011;63269;53.330;-6.288;2023-09-08T11:37:16;204.20;;;153.63;;
74749;SDS011;63269;53.330;-6.288;2023-09-08T11:39:44;196.25;;;150.95;;
74749;SDS011;63269;53.330;-6.288;2023-09-08T11:42:12;196.05;;;149.40;;
74749;SDS011;63269;53.330;-6.288;2023-09-08T11:44:40;192.43;;;144.05;;
74749;SDS011;63269;53.330;-6.288;2023-09-08T11:47:06;194.32;;;144.68;;
74749;SDS011;63269;53.330;-6.288;2023-09-08T11:49:37;193.50;;;146.30;;
74749;SDS011;63269;53.330;-6.288;2023-09-08T11:52:04;188.57;;;143.02;;
74749;SDS011;63269;53.330;-6.288;2023-09-08T11:54:34;186.55;;;142.93;;
74749;SDS011;63269;53.330;-6.288;2023-09-08T11:57:01;186.90;;;141.68;;
74749;SDS011;63269;53.330;-6.288;2023-09-08T11:59:30;188.55;;;141.68;;
74749;SDS011;63269;53.330;-6.288;2023-09-08T12:01:57;182.80;;;139.52;;
74749;SDS011;63269;53.330;-6.288;2023-09-08T12:04:24;173.75;;;135.23;;
74749;SDS011;63269;53.330;-6.288;2023-09-08T12:06:51;172.93;;;131.65;;
74749;SDS011;63269;53.330;-6.288;2023-09-08T12:09:17;174.77;;;134.57;;
74749;SDS011;63269;53.330;-6.288;2023-09-08T12:11:45;172.50;;;132.48;;
74749;SDS011;63269;53.330;-6.288;2023-09-08T12:14:11;174.32;;;133.35;;
74749;SDS011;63269;53.330;-6.288;2023-09-08T12:16:38;167.18;;;128.20;;
74749;SDS011;63269;53.330;-6.288;2023-09-08T12:19:04;166.55;;;128.65;;
74749;SDS011;63269;53.330;-6.288;2023-09-08T12:21:31;157.82;;;122.43;;
74749;SDS011;63269;53.330;-6.288;2023-09-08T12:23:57;162.48;;;122.03;;
74749;SDS011;63269;53.330;-6.288;2023-09-08T12:26:26;161.93;;;123.00;;
74749;SDS011;63269;53.330;-6.288;2023-09-08T12:28:52;157.37;;;122.10;;
74749;SDS011;63269;53.330;-6.288;2023-09-08T12:31:18;155.15;;;119.57;;
74749;SDS011;63269;53.330;-6.288;2023-09-08T12:33:44;158.60;;;119.03;;
74749;SDS011;63269;53.330;-6.288;2023-09-08T12:36:16;153.45;;;118.63;;
74749;SDS011;63269;53.330;-6.288;2023-09-08T12:38:52;160.50;;;116.35;;
74749;SDS011;63269;53.330;-6.288;2023-09-08T12:41:18;147.43;;;112.78;;
74749;SDS011;63269;53.330;-6.288;2023-09-08T12:43:45;149.27;;;114.03;;
74749;SDS011;63269;53.330;-6.288;2023-09-08T12:46:11;145.05;;;111.22;;
74749;SDS011;63269;53.330;-6.288;2023-09-08T12:48:37;144.20;;;108.75;;
74749;SDS011;63269;53.330;-6.288;2023-09-08T12:51:03;143.20;;;109.55;;
74749;SDS011;63269;53.330;-6.288;2023-09-08T12:53:32;139.68;;;107.45;;
74749;SDS011;63269;53.330;-6.288;2023-09-08T12:55:59;136.90;;;104.10;;
74749;SDS011;63269;53.330;-6.288;2023-09-08T12:58:25;136.32;;;104.50;;
74749;SDS011;63269;53.330;-6.288;2023-09-08T13:00:52;128.18;;;100.38;;
74749;SDS011;63269;53.330;-6.288;2023-09-08T13:03:18;131.73;;;101.75;;
74749;SDS011;63269;53.330;-6.288;2023-09-08T13:05:43;130.10;;;98.30;;
74749;SDS011;63269;53.330;-6.288;2023-09-08T13:08:11;129.23;;;98.85;;
74749;SDS011;63269;53.330;-6.288;2023-09-08T13:10:37;123.13;;;96.97;;
74749;SDS011;63269;53.330;-6.288;2023-09-08T13:13:03;122.28;;;97.13;;
74749;SDS011;63269;53.330;-6.288;2023-09-08T13:15:32;120.70;;;92.40;;
74749;SDS011;63269;53.330;-6.288;2023-09-08T13:17:57;125.22;;;91.03;;
74749;SDS011;63269;53.330;-6.288;2023-09-08T13:20:23;118.00;;;90.60;;
74749;SDS011;63269;53.330;-6.288;2023-09-08T13:22:49;119.68;;;88.50;;
74749;SDS011;63269;53.330;-6.288;2023-09-08T13:25:14;121.55;;;90.13;;
74749;SDS011;63269;53.330;-6.288;2023-09-08T13:27:40;108.85;;;83.20;;
74749;SDS011;63269;53.330;-6.288;2023-09-08T13:30:11;110.00;;;81.68;;
74749;SDS011;63269;53.330;-6.288;2023-09-08T13:32:38;107.78;;;79.65;;
74749;SDS011;63269;53.330;-6.288;2023-09-08T13:35:04;106.68;;;77.53;;
74749;SDS011;63269;53.330;-6.288;2023-09-08T13:37:33;108.80;;;77.90;;
74749;SDS011;63269;53.330;-6.288;2023-09-08T13:40:02;102.72;;;74.30;;
74749;SDS011;63269;53.330;-6.288;2023-09-08T13:42:32;99.00;;;71.35;;
74749;SDS011;63269;53.330;-6.288;2023-09-08T13:44:57;95.22;;;71.07;;
74749;SDS011;63269;53.330;-6.288;2023-09-08T13:47:23;95.25;;;71.35;;
74749;SDS011;63269;53.330;-6.288;2023-09-08T13:49:48;98.63;;;72.47;;
74749;SDS011;63269;53.330;-6.288;2023-09-08T13:52:14;92.85;;;68.13;;
74749;SDS011;63269;53.330;-6.288;2023-09-08T13:54:40;92.70;;;65.70;;
74749;SDS011;63269;53.330;-6.288;2023-09-08T13:57:06;86.25;;;64.90;;
74749;SDS011;63269;53.330;-6.288;2023-09-08T13:59:31;84.35;;;62.75;;
74749;SDS011;63269;53.330;-6.288;2023-09-08T14:01:57;84.50;;;62.53;;
74749;SDS011;63269;53.330;-6.288;2023-09-08T14:04:24;79.03;;;60.13;;
74749;SDS011;63269;53.330;-6.288;2023-09-08T14:06:50;80.75;;;60.67;;
74749;SDS011;63269;53.330;-6.288;2023-09-08T14:09:16;76.55;;;57.67;;
74749;SDS011;63269;53.330;-6.288;2023-09-08T14:11:42;79.25;;;57.50;;
74749;SDS011;63269;53.330;-6.288;2023-09-08T14:14:08;77.47;;;56.65;;